PWSweather.com
Personal Weather Stations
Station Observations
INORDPAS37
Bondues, BonduesFR 59910

BonduesBonduesFR 59910

Lat: 50.7, Lon: 3.09

Elevation: 102

Station Type: Netatmo

http://bondues.meteoamikuze.com

High Low Average
Temperature 44.1°F6.7°C 38.1°F3.4°C 41.2°F5.1°C
Dew Point 34.3°F1.3°C 29.7°F-1.3°C 32.0°F0.0°C
Winds 6.9 mph 11.1 kmh 0.7 mph 1.1 kmh 3.0 mph SW4.8 kmh SW
Wind Gusts 16.1 mph25.9 kmh 1.3 mph2.1 kmh 8.0 mph12.9 kmh
Humidity 77% 72% 75%
Pressure 30.48 in1032.2 mb 30.36 in1028.1 mb -
Precipitation 0.02 in0.5 mm - -
Hour Temp Dew Point Humidity Winds Wind Gusts Pressure Precip Precip Rate Daily Precip Total
12:06 AM 41.0°F5.0°C 32.2°F0.1°C 76% 1.3 mph WSW2.1 kmh WSW 2.5 mph4.0 kmh 30.36 in1028.1 mb 0.00 in0.0 mm 0.00 in0.0 mm 0.00 in0.0 mm
12:26 AM 41.0°F5.0°C 32.2°F0.1°C 76% 1.3 mph SW2.1 kmh SW 2.5 mph4.0 kmh 30.37 in1028.4 mb 0.00 in0.0 mm 0.00 in0.0 mm 0.00 in0.0 mm
12:46 AM 40.8°F4.9°C 32.0°F0.0°C 76% 0.7 mph W1.1 kmh W 1.3 mph2.1 kmh 30.37 in1028.4 mb 0.00 in0.0 mm 0.00 in0.0 mm 0.00 in0.0 mm
01:07 AM 40.8°F4.9°C 32.0°F0.0°C 76% 0.7 mph W1.1 kmh W 1.8 mph2.9 kmh 30.37 in1028.4 mb 0.00 in0.0 mm 0.00 in0.0 mm 0.00 in0.0 mm
01:27 AM 40.8°F4.9°C 32.0°F0.0°C 76% 0.7 mph W1.1 kmh W 1.8 mph2.9 kmh 30.37 in1028.4 mb 0.00 in0.0 mm 0.00 in0.0 mm 0.00 in0.0 mm
01:47 AM 40.8°F4.9°C 32.0°F0.0°C 76% 1.8 mph W2.9 kmh W 3.8 mph6.1 kmh 30.38 in1028.8 mb 0.00 in0.0 mm 0.00 in0.0 mm 0.00 in0.0 mm
02:08 AM 40.6°F4.8°C 31.8°F-0.1°C 76% 1.8 mph W2.9 kmh W 4.3 mph6.9 kmh 30.38 in1028.8 mb 0.00 in0.0 mm 0.00 in0.0 mm 0.00 in0.0 mm
02:28 AM 40.6°F4.8°C 31.8°F-0.1°C 76% 1.3 mph WSW2.1 kmh WSW 1.8 mph2.9 kmh 30.38 in1028.8 mb 0.00 in0.0 mm 0.00 in0.0 mm 0.00 in0.0 mm
02:48 AM 40.6°F4.8°C 31.8°F-0.1°C 76% 0.7 mph W1.1 kmh W 1.8 mph2.9 kmh 30.39 in1029.1 mb 0.00 in0.0 mm 0.00 in0.0 mm 0.00 in0.0 mm
03:08 AM 40.5°F4.7°C 31.6°F-0.2°C 76% 0.7 mph SW1.1 kmh SW 1.8 mph2.9 kmh 30.39 in1029.1 mb 0.00 in0.0 mm 0.00 in0.0 mm 0.00 in0.0 mm
03:29 AM 40.5°F4.7°C 31.6°F-0.2°C 76% 1.3 mph SW2.1 kmh SW 3.1 mph5.0 kmh 30.40 in1029.5 mb 0.00 in0.0 mm 0.00 in0.0 mm 0.00 in0.0 mm
03:49 AM 40.3°F4.6°C 31.5°F-0.3°C 76% 1.3 mph W2.1 kmh W 2.5 mph4.0 kmh 30.40 in1029.5 mb 0.00 in0.0 mm 0.00 in0.0 mm 0.00 in0.0 mm
04:15 AM 40.3°F4.6°C 31.5°F-0.3°C 76% 1.3 mph W2.1 kmh W 2.5 mph4.0 kmh 30.40 in1029.5 mb 0.00 in0.0 mm 0.00 in0.0 mm 0.00 in0.0 mm
04:35 AM 40.3°F4.6°C 31.5°F-0.3°C 76% 1.3 mph SW2.1 kmh SW 2.5 mph4.0 kmh 30.40 in1029.5 mb 0.00 in0.0 mm 0.00 in0.0 mm 0.00 in0.0 mm
04:55 AM 40.1°F4.5°C 31.3°F-0.4°C 76% 0.7 mph W1.1 kmh W 1.8 mph2.9 kmh 30.41 in1029.8 mb 0.00 in0.0 mm 0.00 in0.0 mm 0.00 in0.0 mm
05:15 AM 39.9°F4.4°C 31.1°F-0.5°C 76% 0.7 mph SW1.1 kmh SW 1.8 mph2.9 kmh 30.40 in1029.5 mb 0.00 in0.0 mm 0.00 in0.0 mm 0.00 in0.0 mm
05:35 AM 39.7°F4.3°C 30.9°F-0.6°C 76% 1.3 mph SW2.1 kmh SW 3.8 mph6.1 kmh 30.42 in1030.1 mb 0.00 in0.0 mm 0.00 in0.0 mm 0.00 in0.0 mm
05:55 AM 39.6°F4.2°C 30.7°F-0.7°C 76% 1.3 mph WSW2.1 kmh WSW 3.1 mph5.0 kmh 30.42 in1030.1 mb 0.00 in0.0 mm 0.00 in0.0 mm 0.00 in0.0 mm
06:15 AM 39.6°F4.2°C 30.7°F-0.7°C 76% 1.3 mph WSW2.1 kmh WSW 2.5 mph4.0 kmh 30.44 in1030.8 mb 0.00 in0.0 mm 0.00 in0.0 mm 0.00 in0.0 mm
06:35 AM 39.6°F4.2°C 30.7°F-0.7°C 76% 1.8 mph SW2.9 kmh SW 3.8 mph6.1 kmh 30.45 in1031.2 mb 0.00 in0.0 mm 0.00 in0.0 mm 0.00 in0.0 mm
06:41 AM 39.4°F4.1°C 30.6°F-0.8°C 76% 1.8 mph SW2.9 kmh SW 4.9 mph7.9 kmh 30.45 in1031.2 mb 0.00 in0.0 mm 0.00 in0.0 mm 0.00 in0.0 mm
07:01 AM 39.0°F3.9°C 30.6°F-0.8°C 77% 1.8 mph WSW2.9 kmh WSW 4.3 mph6.9 kmh 30.45 in1031.2 mb 0.00 in0.0 mm 0.00 in0.0 mm 0.00 in0.0 mm
07:21 AM 38.8°F3.8°C 30.4°F-0.9°C 77% 1.8 mph WSW2.9 kmh WSW 3.1 mph5.0 kmh 30.45 in1031.2 mb 0.00 in0.0 mm 0.00 in0.0 mm 0.00 in0.0 mm
07:42 AM 38.7°F3.7°C 30.2°F-1.0°C 77% 1.8 mph SW2.9 kmh SW 4.9 mph7.9 kmh 30.44 in1030.8 mb 0.00 in0.0 mm 0.00 in0.0 mm 0.00 in0.0 mm
08:02 AM 38.3°F3.5°C 29.8°F-1.2°C 77% 2.5 mph SW4.0 kmh SW 7.4 mph11.9 kmh 30.44 in1030.8 mb 0.00 in0.0 mm 0.00 in0.0 mm 0.00 in0.0 mm
08:22 AM 38.3°F3.5°C 29.8°F-1.2°C 77% 1.8 mph WSW2.9 kmh WSW 3.8 mph6.1 kmh 30.45 in1031.2 mb 0.00 in0.0 mm 0.00 in0.0 mm 0.00 in0.0 mm
08:42 AM 38.3°F3.5°C 29.8°F-1.2°C 77% 2.5 mph WSW4.0 kmh WSW 4.9 mph7.9 kmh 30.46 in1031.5 mb 0.00 in0.0 mm 0.00 in0.0 mm 0.00 in0.0 mm
09:03 AM 38.3°F3.5°C 29.8°F-1.2°C 77% 2.5 mph SW4.0 kmh SW 4.9 mph7.9 kmh 30.47 in1031.8 mb 0.00 in0.0 mm 0.00 in0.0 mm 0.00 in0.0 mm
09:22 AM 38.1°F3.4°C 29.7°F-1.3°C 77% 3.1 mph WSW5.0 kmh WSW 8.7 mph14.0 kmh 30.47 in1031.8 mb 0.00 in0.0 mm 0.00 in0.0 mm 0.00 in0.0 mm
09:43 AM 38.1°F3.4°C 29.7°F-1.3°C 77% 2.5 mph SW4.0 kmh SW 5.6 mph9.0 kmh 30.47 in1031.8 mb 0.00 in0.0 mm 0.00 in0.0 mm 0.00 in0.0 mm
10:03 AM 38.3°F3.5°C 29.8°F-1.2°C 77% 3.1 mph SW5.0 kmh SW 6.9 mph11.1 kmh 30.47 in1031.8 mb 0.00 in0.0 mm 0.00 in0.0 mm 0.00 in0.0 mm
10:23 AM 38.8°F3.8°C 30.4°F-0.9°C 77% 2.5 mph SW4.0 kmh SW 8.1 mph13.0 kmh 30.47 in1031.8 mb 0.00 in0.0 mm 0.00 in0.0 mm 0.00 in0.0 mm
10:44 AM 39.2°F4.0°C 30.7°F-0.7°C 77% 3.1 mph SW5.0 kmh SW 7.4 mph11.9 kmh 30.47 in1031.8 mb 0.00 in0.0 mm 0.00 in0.0 mm 0.00 in0.0 mm
11:04 AM 39.7°F4.3°C 31.3°F-0.4°C 77% 3.1 mph SW5.0 kmh SW 6.9 mph11.1 kmh 30.48 in1032.2 mb 0.00 in0.0 mm 0.00 in0.0 mm 0.00 in0.0 mm
11:25 AM 40.6°F4.8°C 32.2°F0.1°C 77% 3.1 mph SSW5.0 kmh SSW 8.1 mph13.0 kmh 30.47 in1031.8 mb 0.00 in0.0 mm 0.00 in0.0 mm 0.00 in0.0 mm
11:44 AM 40.8°F4.9°C 32.0°F0.0°C 76% 3.8 mph SW6.1 kmh SW 8.1 mph13.0 kmh 30.46 in1031.5 mb 0.00 in0.0 mm 0.00 in0.0 mm 0.00 in0.0 mm
12:05 PM 41.2°F5.1°C 32.4°F0.2°C 76% 3.8 mph SW6.1 kmh SW 9.8 mph15.8 kmh 30.46 in1031.5 mb 0.00 in0.0 mm 0.00 in0.0 mm 0.00 in0.0 mm
12:25 PM 41.4°F5.2°C 32.5°F0.3°C 76% 3.1 mph SW5.0 kmh SW 6.9 mph11.1 kmh 30.46 in1031.5 mb 0.00 in0.0 mm 0.00 in0.0 mm 0.00 in0.0 mm
12:45 PM 41.7°F5.4°C 32.9°F0.5°C 76% 3.1 mph SW5.0 kmh SW 8.1 mph13.0 kmh 30.46 in1031.5 mb 0.00 in0.0 mm 0.00 in0.0 mm 0.00 in0.0 mm
01:05 PM 41.9°F5.5°C 33.1°F0.6°C 76% 6.9 mph SW11.1 kmh SW 13.6 mph21.9 kmh 30.46 in1031.5 mb 0.00 in0.0 mm 0.00 in0.0 mm 0.00 in0.0 mm
01:26 PM 42.3°F5.7°C 33.1°F0.6°C 75% 3.8 mph SSW6.1 kmh SSW 9.8 mph15.8 kmh 30.44 in1030.8 mb 0.00 in0.0 mm 0.00 in0.0 mm 0.00 in0.0 mm
01:46 PM 42.6°F5.9°C 33.4°F0.8°C 75% 3.8 mph SW6.1 kmh SW 11.2 mph18.0 kmh 30.44 in1030.8 mb 0.00 in0.0 mm 0.00 in0.0 mm 0.00 in0.0 mm
02:06 PM 43.0°F6.1°C 33.8°F1.0°C 75% 4.9 mph SW7.9 kmh SW 10.5 mph16.9 kmh 30.44 in1030.8 mb 0.00 in0.0 mm 0.00 in0.0 mm 0.00 in0.0 mm
02:27 PM 43.2°F6.2°C 33.8°F1.0°C 75% 4.3 mph SW6.9 kmh SW 12.5 mph20.1 kmh 30.43 in1030.5 mb 0.00 in0.0 mm 0.00 in0.0 mm 0.00 in0.0 mm
02:46 PM 43.7°F6.5°C 34.0°F1.1°C 74% 4.9 mph SW7.9 kmh SW 14.3 mph23.0 kmh 30.42 in1030.1 mb 0.00 in0.0 mm 0.00 in0.0 mm 0.00 in0.0 mm
03:07 PM 43.7°F6.5°C 34.0°F1.1°C 74% 4.9 mph SSW7.9 kmh SSW 11.9 mph19.2 kmh 30.42 in1030.1 mb 0.00 in0.0 mm 0.00 in0.0 mm 0.00 in0.0 mm
03:27 PM 44.1°F6.7°C 34.3°F1.3°C 74% 5.6 mph SW9.0 kmh SW 12.5 mph20.1 kmh 30.42 in1030.1 mb 0.00 in0.0 mm 0.00 in0.0 mm 0.00 in0.0 mm
03:45 PM 44.1°F6.7°C 34.0°F1.1°C 73% 4.9 mph SW7.9 kmh SW 11.2 mph18.0 kmh 30.42 in1030.1 mb 0.00 in0.0 mm 0.01 in0.3 mm 0.00 in0.0 mm
04:06 PM 43.9°F6.6°C 33.8°F1.0°C 73% 6.9 mph SW11.1 kmh SW 13.6 mph21.9 kmh 30.44 in1030.8 mb 0.00 in0.0 mm 0.00 in0.0 mm 0.00 in0.0 mm
04:25 PM 43.5°F6.4°C 33.4°F0.8°C 73% 4.9 mph SW7.9 kmh SW 10.5 mph16.9 kmh 30.43 in1030.5 mb 0.00 in0.0 mm 0.00 in0.0 mm 0.00 in0.0 mm
04:46 PM 43.2°F6.2°C 32.7°F0.4°C 72% 5.6 mph SW9.0 kmh SW 13.0 mph20.9 kmh 30.42 in1030.1 mb 0.00 in0.0 mm 0.00 in0.0 mm 0.00 in0.0 mm
05:06 PM 43.0°F6.1°C 32.9°F0.5°C 73% 4.3 mph SW6.9 kmh SW 9.4 mph15.1 kmh 30.41 in1029.8 mb 0.00 in0.0 mm 0.00 in0.0 mm 0.00 in0.0 mm
05:27 PM 42.8°F6.0°C 32.7°F0.4°C 73% 4.9 mph SW7.9 kmh SW 14.3 mph23.0 kmh 30.41 in1029.8 mb 0.00 in0.0 mm 0.00 in0.0 mm 0.00 in0.0 mm
05:43 PM 42.6°F5.9°C 32.5°F0.3°C 73% 5.6 mph SW9.0 kmh SW 12.5 mph20.1 kmh 30.42 in1030.1 mb 0.00 in0.0 mm 0.00 in0.0 mm 0.00 in0.0 mm
06:03 PM 42.8°F6.0°C 32.7°F0.4°C 73% 4.9 mph SW7.9 kmh SW 10.5 mph16.9 kmh 30.42 in1030.1 mb 0.00 in0.0 mm 0.00 in0.0 mm 0.00 in0.0 mm
06:23 PM 42.8°F6.0°C 32.4°F0.2°C 72% 5.6 mph SW9.0 kmh SW 13.0 mph20.9 kmh 30.41 in1029.8 mb 0.00 in0.0 mm 0.00 in0.0 mm 0.00 in0.0 mm
06:44 PM 42.8°F6.0°C 32.4°F0.2°C 72% 4.9 mph SW7.9 kmh SW 14.3 mph23.0 kmh 30.41 in1029.8 mb 0.00 in0.0 mm 0.00 in0.0 mm 0.00 in0.0 mm
07:03 PM 42.8°F6.0°C 32.4°F0.2°C 72% 4.3 mph SW6.9 kmh SW 12.5 mph20.1 kmh 30.40 in1029.5 mb 0.00 in0.0 mm 0.00 in0.0 mm 0.00 in0.0 mm
07:24 PM 42.6°F5.9°C 32.2°F0.1°C 72% 5.6 mph SW9.0 kmh SW 13.0 mph20.9 kmh 30.39 in1029.1 mb 0.00 in0.0 mm 0.00 in0.0 mm 0.00 in0.0 mm
07:45 PM 42.4°F5.8°C 32.4°F0.2°C 73% 5.6 mph SW9.0 kmh SW 13.6 mph21.9 kmh 30.40 in1029.5 mb 0.00 in0.0 mm 0.00 in0.0 mm 0.00 in0.0 mm
08:02 PM 42.3°F5.7°C 32.2°F0.1°C 73% 5.6 mph SW9.0 kmh SW 12.5 mph20.1 kmh 30.40 in1029.5 mb 0.01 in0.3 mm 0.02 in0.5 mm 0.02 in0.5 mm
08:21 PM 41.9°F5.5°C 32.0°F0.0°C 73% 5.6 mph SW9.0 kmh SW 13.0 mph20.9 kmh 30.40 in1029.5 mb 0.01 in0.3 mm 0.00 in0.0 mm 0.02 in0.5 mm
08:42 PM 41.9°F5.5°C 32.4°F0.2°C 74% 6.9 mph SW11.1 kmh SW 16.1 mph25.9 kmh 30.39 in1029.1 mb 0.02 in0.5 mm 0.01 in0.3 mm 0.02 in0.5 mm
09:02 PM 42.1°F5.6°C 32.5°F0.3°C 74% 4.3 mph SW6.9 kmh SW 10.5 mph16.9 kmh 30.40 in1029.5 mb 0.00 in0.0 mm 0.00 in0.0 mm 0.02 in0.5 mm
09:22 PM 42.3°F5.7°C 32.7°F0.4°C 74% 6.9 mph SW11.1 kmh SW 12.5 mph20.1 kmh 30.40 in1029.5 mb 0.00 in0.0 mm 0.00 in0.0 mm 0.02 in0.5 mm
09:42 PM 42.3°F5.7°C 32.7°F0.4°C 74% 5.6 mph SW9.0 kmh SW 13.0 mph20.9 kmh 30.40 in1029.5 mb 0.00 in0.0 mm 0.00 in0.0 mm 0.02 in0.5 mm
10:02 PM 42.3°F5.7°C 32.7°F0.4°C 74% 5.6 mph SW9.0 kmh SW 11.2 mph18.0 kmh 30.39 in1029.1 mb 0.00 in0.0 mm 0.00 in0.0 mm 0.02 in0.5 mm
10:22 PM 42.4°F5.8°C 33.3°F0.7°C 75% 4.9 mph SW7.9 kmh SW 11.2 mph18.0 kmh 30.39 in1029.1 mb 0.00 in0.0 mm 0.00 in0.0 mm 0.02 in0.5 mm
10:42 PM 42.8°F6.0°C 33.6°F0.9°C 75% 4.3 mph SW6.9 kmh SW 9.8 mph15.8 kmh 30.40 in1029.5 mb 0.00 in0.0 mm 0.00 in0.0 mm 0.02 in0.5 mm
11:03 PM 43.2°F6.2°C 33.8°F1.0°C 75% 3.8 mph SW6.1 kmh SW 12.5 mph20.1 kmh 30.39 in1029.1 mb 0.00 in0.0 mm 0.00 in0.0 mm 0.02 in0.5 mm
11:23 PM 43.2°F6.2°C 33.8°F1.0°C 75% 3.8 mph SW6.1 kmh SW 9.8 mph15.8 kmh 30.39 in1029.1 mb 0.00 in0.0 mm 0.00 in0.0 mm 0.02 in0.5 mm
11:43 PM 43.2°F6.2°C 33.8°F1.0°C 75% 3.8 mph SW6.1 kmh SW 8.1 mph13.0 kmh 30.39 in1029.1 mb 0.00 in0.0 mm 0.00 in0.0 mm 0.02 in0.5 mm